Time;durP1;ratioP1;P1;durP2;ratioP2;P2;SDS_P1;SDS_P2;PMS_P1;PMS_P2;Temp;Humidity;BMP_temperature;BMP_pressure;BME280_temperature;BME280_humidity;BME280_pressure;Samples;Min_cycle;Max_cycle;Signal;HPM_P1;HPM_P2
2023/11/07 00:00:25;;;;;;;;;6.50;6.00;;;;;-143.90;100.00;75461.66;4976513;28;104217;-74
2023/11/07 00:02:53;;;;;;;;;6.00;4.00;;;;;-143.90;100.00;75459.59;4979741;28;102173;-75
2023/11/07 00:05:20;;;;;;;;;7.25;6.50;;;;;-143.90;100.00;75449.25;4982160;28;102237;-74
2023/11/07 00:07:47;;;;;;;;;8.50;7.00;;;;;-143.90;100.00;75441.00;4981152;28;102446;-75
2023/11/07 00:10:14;;;;;;;;;6.50;6.00;;;;;-143.90;100.00;75441.00;4977929;28;103428;-76
2023/11/07 00:12:43;;;;;;;;;6.00;3.00;;;;;-143.90;100.00;75441.00;4979247;28;102370;-76
2023/11/07 00:15:10;;;;;;;;;4.50;4.50;;;;;-143.90;100.00;75428.59;4975210;28;102487;-75
2023/11/07 00:17:37;;;;;;;;;7.75;4.00;;;;;-143.90;100.00;75420.31;4984254;28;102047;-76
2023/11/07 00:20:04;;;;;;;;;3.75;2.00;;;;;-143.90;100.00;75397.56;4980508;28;104537;-76
2023/11/07 00:22:31;;;;;;;;;3.50;2.50;;;;;-143.90;100.00;75399.63;4973840;28;103307;-75
2023/11/07 00:24:58;;;;;;;;;4.00;4.00;;;;;-143.90;100.00;75393.44;4978437;28;102351;-75
2023/11/07 00:27:27;;;;;;;;;3.00;2.00;;;;;-143.90;100.00;75391.38;4985713;28;102329;-74
2023/11/07 00:29:54;;;;;;;;;2.50;2.00;;;;;-143.90;100.00;75395.50;4976312;28;105526;-76
2023/11/07 00:32:21;;;;;;;;;4.25;3.00;;;;;-143.90;100.00;75391.38;4976947;28;102290;-75
2023/11/07 00:34:48;;;;;;;;;2.75;2.00;;;;;-143.90;100.00;75397.56;4974089;28;102133;-75
2023/11/07 00:37:14;;;;;;;;;1.50;1.50;;;;;-143.90;100.00;75401.72;4986185;28;102371;-76
2023/11/07 00:39:41;;;;;;;;;1.00;1.00;;;;;-143.90;100.00;75412.03;4979170;28;105255;-76
2023/11/07 00:42:08;;;;;;;;;1.25;1.25;;;;;-143.90;100.00;75412.03;4978862;28;103585;-75
2023/11/07 00:44:35;;;;;;;;;1.00;1.00;;;;;-143.90;100.00;75414.13;4984325;28;102150;-75
2023/11/07 00:47:02;;;;;;;;;1.00;0.50;;;;;-143.90;100.00;75420.31;4982200;28;102200;-76
2023/11/07 00:49:29;;;;;;;;;1.00;1.00;;;;;-143.90;100.00;75420.31;4979198;28;103920;-76
2023/11/07 00:51:59;;;;;;;;;1.25;1.00;;;;;-143.90;100.00;75424.44;4979160;28;102102;-75
2023/11/07 00:54:26;;;;;;;;;1.00;1.00;;;;;-143.90;100.00;75436.84;4978988;28;102251;-76
2023/11/07 00:56:53;;;;;;;;;2.75;2.00;;;;;-143.90;100.00;75432.72;4984162;28;102377;-75
2023/11/07 00:59:20;;;;;;;;;1.00;1.00;;;;;-143.90;100.00;75441.00;4983737;28;105404;-75
2023/11/07 01:01:46;;;;;;;;;0.00;0.00;;;;;-143.90;100.00;75447.19;4987467;28;103892;-75
2023/11/07 01:04:13;;;;;;;;;2.00;1.00;;;;;-143.90;100.00;75445.13;4999099;28;102555;-75
2023/11/07 01:06:40;;;;;;;;;2.00;1.00;;;;;-143.90;100.00;75459.59;4987468;28;103807;-76
2023/11/07 01:09:07;;;;;;;;;1.25;0.50;;;;;-143.90;100.00;75453.41;4984166;28;102994;-75
2023/11/07 01:11:35;;;;;;;;;0.25;0.00;;;;;-143.90;100.00;75451.31;4985307;28;102277;-74
2023/11/07 01:14:03;;;;;;;;;1.00;1.00;;;;;-143.90;100.00;75453.41;4984060;28;102349;-75
2023/11/07 01:16:30;;;;;;;;;0.00;0.00;;;;;-143.90;100.00;75453.41;4986126;28;103827;-75
2023/11/07 01:18:57;;;;;;;;;1.00;0.00;;;;;-143.90;100.00;75447.19;4987606;28;103783;-74
2023/11/07 01:21:23;;;;;;;;;2.50;2.00;;;;;-143.90;100.00;75449.25;4983747;28;102489;-75
2023/11/07 01:23:50;;;;;;;;;2.25;2.25;;;;;-143.90;100.00;75457.53;4985572;28;102391;-75
2023/11/07 01:26:17;;;;;;;;;2.00;1.00;;;;;-143.90;100.00;75453.41;5001775;28;102164;-74
2023/11/07 01:28:44;;;;;;;;;2.50;1.00;;;;;-143.90;100.00;75463.72;4987566;28;104098;-75
2023/11/07 01:31:10;;;;;;;;;2.50;1.50;;;;;-143.90;100.00;75461.66;4985496;28;102169;-75
2023/11/07 01:33:37;;;;;;;;;1.25;1.25;;;;;-143.90;100.00;75461.66;4982568;28;103964;-75
2023/11/07 01:36:04;;;;;;;;;1.75;1.75;;;;;-143.90;100.00;75472.00;4986835;28;101991;-75
2023/11/07 01:38:32;;;;;;;;;0.50;0.50;;;;;-143.90;100.00;75465.81;4984349;28;103010;-75
2023/11/07 01:40:59;;;;;;;;;1.50;1.50;;;;;-143.90;100.00;75469.94;4996064;28;102256;-75
2023/11/07 01:43:26;;;;;;;;;0.00;0.00;;;;;-143.90;100.00;75472.00;4982875;28;102197;-74
2023/11/07 01:45:59;;;;;;;;;1.00;1.00;;;;;-143.90;100.00;75469.94;4989257;28;102238;-75
2023/11/07 01:48:26;;;;;;;;;1.00;1.00;;;;;-143.90;100.00;75463.72;4978369;28;103699;-75
2023/11/07 01:50:54;;;;;;;;;1.00;1.00;;;;;-143.90;100.00;75459.59;4985184;28;102261;-75
2023/11/07 01:53:21;;;;;;;;;2.00;1.75;;;;;-143.90;100.00;75445.13;4983734;28;102128;-75
2023/11/07 01:55:48;;;;;;;;;3.00;3.00;;;;;-143.90;100.00;75441.00;4989532;28;102019;-75
2023/11/07 01:58:16;;;;;;;;;2.00;1.00;;;;;-143.90;100.00;75443.06;4986140;28;104155;-74
2023/11/07 02:00:44;;;;;;;;;4.25;2.25;;;;;-143.90;100.00;75438.94;4986791;28;102350;-74
2023/11/07 02:03:11;;;;;;;;;1.00;1.00;;;;;-143.90;100.00;75424.44;4986477;28;102340;-74
2023/11/07 02:05:41;;;;;;;;;2.00;2.00;;;;;-143.90;100.00;75432.72;4987401;28;102315;-74
2023/11/07 02:08:09;;;;;;;;;2.75;1.75;;;;;-143.90;100.00;75428.59;4979255;28;105567;-74
2023/11/07 02:10:37;;;;;;;;;1.50;1.25;;;;;-143.90;100.00;75426.50;4986848;28;102542;-74
2023/11/07 02:13:03;;;;;;;;;1.50;1.00;;;;;-143.90;100.00;75436.84;4987579;28;102265;-74
2023/11/07 02:15:31;;;;;;;;;2.75;2.00;;;;;-143.90;100.00;75443.06;5001563;28;102221;-76
2023/11/07 02:17:59;;;;;;;;;2.00;1.25;;;;;-143.90;100.00;75441.00;4984391;28;104291;-74
2023/11/07 02:20:26;;;;;;;;;0.50;0.50;;;;;-143.90;100.00;75443.06;4986150;28;102979;-74
2023/11/07 02:23:01;;;;;;;;;1.50;1.50;;;;;-143.90;100.00;75441.00;4985191;28;102944;-75
2023/11/07 02:25:28;;;;;;;;;1.00;1.00;;;;;-143.90;100.00;75453.41;4987940;28;101920;-75
2023/11/07 02:27:55;;;;;;;;;3.25;2.50;;;;;-143.90;100.00;75455.47;4987513;28;103277;-75
2023/11/07 02:30:22;;;;;;;;;2.00;2.00;;;;;-143.90;100.00;75457.53;4986843;28;102404;-74
2023/11/07 02:32:48;;;;;;;;;2.00;2.00;;;;;-143.90;100.00;75463.72;4987013;28;102121;-75
2023/11/07 02:35:15;;;;;;;;;1.50;1.00;;;;;-143.90;100.00;75457.53;4987333;28;102468;-74
2023/11/07 02:37:46;;;;;;;;;1.00;1.00;;;;;-143.90;100.00;75465.81;4987556;28;105468;-75
2023/11/07 02:40:13;;;;;;;;;3.00;2.00;;;;;-143.90;100.00;75463.72;4984797;28;102035;-74
2023/11/07 02:42:40;;;;;;;;;3.00;1.75;;;;;-143.90;100.00;75469.94;4984532;28;102210;-76
2023/11/07 02:45:07;;;;;;;;;1.00;1.00;;;;;-143.90;100.00;75486.47;4985958;28;103096;-76
2023/11/07 02:47:34;;;;;;;;;1.75;1.75;;;;;-143.90;100.00;75488.53;4985710;28;104263;-74
2023/11/07 02:50:10;;;;;;;;;2.75;1.00;;;;;-143.90;100.00;75490.63;4986411;28;102296;-74
2023/11/07 02:52:38;;;;;;;;;1.75;1.75;;;;;-143.90;100.00;75498.88;4983264;28;102809;-74
2023/11/07 02:55:06;;;;;;;;;2.50;2.50;;;;;-143.90;100.00;75498.88;4987868;28;102337;-74
2023/11/07 02:57:33;;;;;;;;;1.00;0.75;;;;;-143.90;100.00;75507.16;4983452;28;105464;-74
2023/11/07 03:00:00;;;;;;;;;1.75;1.75;;;;;-143.90;100.00;75509.22;4984355;28;102264;-74
2023/11/07 03:02:26;;;;;;;;;3.00;3.00;;;;;-143.90;100.00;75509.22;4984335;28;102364;-74
2023/11/07 03:04:56;;;;;;;;;1.00;1.00;;;;;-143.90;100.00;75507.16;4986220;28;102379;-75
2023/11/07 03:07:23;;;;;;;;;7.00;6.00;;;;;-143.90;100.00;75517.50;4980516;28;103164;-75
2023/11/07 03:09:51;;;;;;;;;5.50;3.50;;;;;-143.90;100.00;75521.63;4979850;28;102093;-75
2023/11/07 03:12:18;;;;;;;;;3.75;3.00;;;;;-143.90;100.00;75523.69;4984706;28;102156;-74
2023/11/07 03:14:45;;;;;;;;;2.00;2.00;;;;;-143.90;100.00;75519.56;4989116;28;102317;-75
2023/11/07 03:17:12;;;;;;;;;2.50;2.50;;;;;-143.90;100.00;75517.50;4998050;28;104192;-75
2023/11/07 03:19:38;;;;;;;;;2.50;2.50;;;;;-143.90;100.00;75521.63;4985839;28;103157;-74
2023/11/07 03:22:05;;;;;;;;;2.00;2.00;;;;;-143.90;100.00;75527.81;4987052;28;101938;-74
2023/11/07 03:24:32;;;;;;;;;2.00;2.00;;;;;-143.90;100.00;75531.97;4987530;28;102401;-75
2023/11/07 03:26:59;;;;;;;;;3.25;2.00;;;;;-143.90;100.00;75527.81;4980776;28;104011;-75
2023/11/07 03:29:27;;;;;;;;;2.50;2.00;;;;;-143.90;100.00;75517.50;4983509;28;101924;-75
2023/11/07 03:31:54;;;;;;;;;2.00;2.00;;;;;-143.90;100.00;75515.41;4982427;28;102201;-75
2023/11/07 03:34:21;;;;;;;;;3.00;2.50;;;;;-143.90;100.00;75515.41;4984186;28;102162;-75
2023/11/07 03:36:48;;;;;;;;;3.25;3.25;;;;;-143.90;100.00;75515.41;4982631;28;103850;-77
2023/11/07 03:39:15;;;;;;;;;3.00;3.00;;;;;-143.90;100.00;75511.28;4981114;28;102172;-76
2023/11/07 03:41:42;;;;;;;;;3.50;3.50;;;;;-143.90;100.00;75500.94;4984480;28;102150;-75
2023/11/07 03:44:09;;;;;;;;;4.00;3.25;;;;;-143.90;100.00;75498.88;4982889;28;102018;-75
2023/11/07 03:46:35;;;;;;;;;4.00;4.00;;;;;-143.90;100.00;75492.69;4983954;28;103100;-75
2023/11/07 03:49:02;;;;;;;;;2.25;2.25;;;;;-143.90;100.00;75492.69;4980815;28;102327;-75
2023/11/07 03:51:29;;;;;;;;;4.00;3.50;;;;;-143.90;100.00;75486.47;4985078;28;103655;-75
2023/11/07 03:53:56;;;;;;;;;4.00;3.25;;;;;-143.90;100.00;75492.69;4985458;28;102210;-76
2023/11/07 03:56:23;;;;;;;;;2.00;2.00;;;;;-143.90;100.00;75482.34;4981629;28;104193;-75
2023/11/07 03:58:50;;;;;;;;;5.00;3.00;;;;;-143.90;100.00;75490.63;4978579;28;103112;-75
2023/11/07 04:01:16;;;;;;;;;3.00;2.75;;;;;-143.90;100.00;75490.63;5002179;28;102247;-75
2023/11/07 04:03:43;;;;;;;;;2.25;2.00;;;;;-143.90;100.00;75486.47;5001479;28;102365;-75
2023/11/07 04:06:10;;;;;;;;;2.00;1.25;;;;;-143.90;100.00;75482.34;4978786;28;104606;-75
2023/11/07 04:08:37;;;;;;;;;1.00;1.00;;;;;-143.90;100.00;75486.47;4987120;28;102007;-75
2023/11/07 04:11:04;;;;;;;;;2.75;2.25;;;;;-143.90;100.00;75496.81;4983063;28;103007;-75
2023/11/07 04:13:31;;;;;;;;;3.00;3.00;;;;;-143.90;100.00;75494.75;4982539;28;102344;-75
2023/11/07 04:15:58;;;;;;;;;5.25;5.25;;;;;-143.90;100.00;75498.88;4984054;28;104292;-75
2023/11/07 04:18:25;;;;;;;;;10.50;8.75;;;;;-143.90;100.00;75507.16;4981560;28;102268;-74
2023/11/07 04:20:52;;;;;;;;;8.50;7.75;;;;;-143.90;100.00;75503.03;4979714;28;101905;-75
2023/11/07 04:23:19;;;;;;;;;11.00;8.00;;;;;-143.90;100.00;75494.75;4988397;28;102286;-75
2023/11/07 04:25:47;;;;;;;;;6.75;6.00;;;;;-143.90;100.00;75498.88;4984136;28;104180;-75
2023/11/07 04:28:16;;;;;;;;;5.75;4.00;;;;;-143.90;100.00;75505.09;4979200;28;101945;-75
2023/11/07 04:30:43;;;;;;;;;6.50;6.00;;;;;-143.90;100.00;75498.88;4983537;28;101943;-74
2023/11/07 04:33:11;;;;;;;;;9.50;6.50;;;;;-143.90;100.00;75511.28;4984102;28;101996;-74
2023/11/07 04:35:41;;;;;;;;;9.75;8.75;;;;;-143.90;100.00;75527.81;4989198;28;104347;-74
2023/11/07 04:38:08;;;;;;;;;8.00;8.00;;;;;-143.90;100.00;75521.63;4982862;28;101958;-74
2023/11/07 04:40:35;;;;;;;;;7.50;6.25;;;;;-143.90;100.00;75523.69;4987523;28;101948;-76
2023/11/07 04:43:02;;;;;;;;;5.00;4.00;;;;;-143.90;100.00;75517.50;4989833;28;102226;-74
2023/11/07 04:45:29;;;;;;;;;6.00;3.25;;;;;-143.90;100.00;75515.41;4983973;28;104025;-74
2023/11/07 04:47:56;;;;;;;;;5.00;4.50;;;;;-143.90;100.00;75511.28;4987537;28;101909;-74
2023/11/07 04:50:24;;;;;;;;;3.50;3.00;;;;;-143.90;100.00;75511.28;4986509;28;102234;-75
2023/11/07 04:52:51;;;;;;;;;6.00;4.00;;;;;-143.90;100.00;75507.16;4986035;28;102254;-74
2023/11/07 04:55:18;;;;;;;;;3.75;3.00;;;;;-143.90;100.00;75511.28;4987541;28;104134;-75
2023/11/07 04:57:45;;;;;;;;;3.50;2.00;;;;;-143.90;100.00;75513.34;4989251;28;102433;-75
2023/11/07 05:00:12;;;;;;;;;2.00;2.00;;;;;-143.90;100.00;75521.63;4985229;28;101881;-75
2023/11/07 05:02:39;;;;;;;;;5.50;3.25;;;;;-143.90;100.00;75517.50;4987276;28;102236;-75
2023/11/07 05:05:06;;;;;;;;;3.00;3.00;;;;;-143.90;100.00;75515.41;4981673;28;105809;-75
2023/11/07 05:07:34;;;;;;;;;7.00;6.00;;;;;-143.90;100.00;75521.63;4984948;28;102348;-75
2023/11/07 05:10:09;;;;;;;;;4.00;4.00;;;;;-143.90;100.00;75527.81;4984292;28;102189;-75
2023/11/07 05:12:37;;;;;;;;;3.00;3.00;;;;;-143.90;100.00;75548.50;4980603;28;103623;-75
2023/11/07 05:15:04;;;;;;;;;3.00;2.00;;;;;-143.90;100.00;75544.38;4984358;28;106125;-75
2023/11/07 05:17:31;;;;;;;;;5.75;3.50;;;;;-143.90;100.00;75552.63;4980643;28;102517;-75
2023/11/07 05:19:58;;;;;;;;;6.75;4.00;;;;;-143.90;100.00;75567.13;4982208;28;101973;-75
2023/11/07 05:22:25;;;;;;;;;4.00;4.00;;;;;-143.90;100.00;75575.38;4985221;28;102294;-75
2023/11/07 05:24:51;;;;;;;;;2.25;2.25;;;;;-143.90;100.00;75579.53;4984132;28;103964;-76
2023/11/07 05:27:18;;;;;;;;;5.00;2.00;;;;;-143.90;100.00;75581.59;4984988;28;103441;-76
2023/11/07 05:29:47;;;;;;;;;4.75;3.00;;;;;-143.90;100.00;75589.84;4985905;28;102463;-76
2023/11/07 05:32:14;;;;;;;;;6.00;6.00;;;;;-143.90;100.00;75602.25;4987102;28;103821;-75
2023/11/07 05:34:41;;;;;;;;;6.00;6.00;;;;;-143.90;100.00;75589.84;4986045;28;104104;-74
2023/11/07 05:37:07;;;;;;;;;9.00;8.00;;;;;-143.90;100.00;75585.72;4984448;28;101913;-75
2023/11/07 05:39:37;;;;;;;;;6.00;4.50;;;;;-143.90;100.00;75573.31;4982015;28;102190;-76
2023/11/07 05:42:06;;;;;;;;;7.50;7.00;;;;;-143.90;100.00;75550.56;4988274;28;102064;-76
2023/11/07 05:44:33;;;;;;;;;7.00;6.00;;;;;-143.90;100.00;75531.97;4983360;28;104324;-76
2023/11/07 05:47:00;;;;;;;;;7.00;6.00;;;;;-143.90;100.00;75527.81;4985053;28;102071;-75
2023/11/07 05:49:26;;;;;;;;;8.25;7.75;;;;;-143.90;100.00;75511.28;4982117;28;102096;-76
2023/11/07 05:51:53;;;;;;;;;8.25;6.25;;;;;-143.90;100.00;75494.75;4987817;28;102036;-76
2023/11/07 05:54:20;;;;;;;;;7.50;7.00;;;;;-143.90;100.00;75478.22;4987002;28;104128;-76
2023/11/07 05:56:47;;;;;;;;;4.00;3.00;;;;;-143.90;100.00;75474.06;4985620;28;102350;-77
2023/11/07 05:59:14;;;;;;;;;9.00;7.00;;;;;-143.90;100.00;75459.59;4987166;28;102279;-75
2023/11/07 06:01:40;;;;;;;;;9.00;7.50;;;;;-143.90;100.00;75451.31;4987311;28;102039;-76
2023/11/07 06:04:08;;;;;;;;;4.00;4.00;;;;;-143.90;100.00;75432.72;4984219;28;104120;-77
2023/11/07 06:06:37;;;;;;;;;5.00;4.00;;;;;-143.90;100.00;75428.59;4987142;28;102093;-76
2023/11/07 06:09:04;;;;;;;;;6.50;4.00;;;;;-143.90;100.00;75418.25;5000699;28;102019;-76
2023/11/07 06:11:31;;;;;;;;;7.00;6.00;;;;;-143.90;100.00;75414.13;4988637;28;102203;-75
2023/11/07 06:13:58;;;;;;;;;7.25;7.00;;;;;-143.90;100.00;75418.25;4985215;28;105932;-75
2023/11/07 06:16:26;;;;;;;;;8.00;7.00;;;;;-143.90;100.00;75422.38;4976512;28;102243;-76
2023/11/07 06:18:52;;;;;;;;;8.50;7.00;;;;;-143.90;100.00;75420.31;4987843;28;102117;-75
2023/11/07 06:21:21;;;;;;;;;8.25;7.00;;;;;-143.90;100.00;75424.44;5004056;28;102974;-75
2023/11/07 06:23:48;;;;;;;;;7.00;6.50;;;;;-143.90;100.00;75420.31;4985059;28;104167;-75
2023/11/07 06:26:15;;;;;;;;;6.00;5.00;;;;;-143.90;100.00;75412.03;4985226;28;102310;-74
2023/11/07 06:28:42;;;;;;;;;3.00;3.00;;;;;-143.90;100.00;75420.31;4980358;28;102053;-75
2023/11/07 06:31:09;;;;;;;;;4.50;4.00;;;;;-143.90;100.00;75424.44;4981436;28;102469;-75
2023/11/07 06:33:35;;;;;;;;;7.00;3.50;;;;;-143.90;100.00;75430.66;4984150;28;103403;-75
2023/11/07 06:36:03;;;;;;;;;6.50;5.00;;;;;-143.90;100.00;75432.72;4984246;28;102285;-74
2023/11/07 06:38:30;;;;;;;;;6.00;6.00;;;;;-143.90;100.00;75441.00;4981552;28;102031;-74
2023/11/07 06:40:57;;;;;;;;;4.00;3.00;;;;;-143.90;100.00;75432.72;4988889;28;102357;-75
2023/11/07 06:43:25;;;;;;;;;2.75;2.00;;;;;-143.90;100.00;75428.59;4980604;28;103738;-75
2023/11/07 06:45:52;;;;;;;;;3.25;3.00;;;;;-143.90;100.00;75432.72;4984432;28;102117;-75
2023/11/07 06:48:19;;;;;;;;;7.00;4.50;;;;;-143.90;100.00;75430.66;4980327;28;102128;-74
2023/11/07 06:50:46;;;;;;;;;4.50;4.00;;;;;-143.90;100.00;75432.72;4977131;28;102508;-74
2023/11/07 06:53:13;;;;;;;;;4.00;4.00;;;;;-143.90;100.00;75432.72;4986882;28;105348;-74
2023/11/07 06:55:41;;;;;;;;;6.00;4.00;;;;;-143.90;100.00;75420.31;4983911;28;102939;-74
2023/11/07 06:58:08;;;;;;;;;2.50;2.50;;;;;-143.90;100.00;75414.13;4985786;28;101979;-74
2023/11/07 07:00:38;;;;;;;;;3.00;2.50;;;;;-143.90;100.00;75409.97;5002141;28;102448;-74
2023/11/07 07:03:06;;;;;;;;;2.75;2.75;;;;;-143.90;100.00;75409.97;4986215;28;104211;-75
2023/11/07 07:05:33;;;;;;;;;2.50;1.75;;;;;-143.90;100.00;75409.97;4986980;28;102152;-75
2023/11/07 07:08:00;;;;;;;;;1.25;1.25;;;;;-143.90;100.00;75395.50;4983551;28;102088;-74
2023/11/07 07:10:27;;;;;;;;;3.00;3.00;;;;;-143.90;100.00;75393.44;5001778;28;102693;-75
2023/11/07 07:12:54;;;;;;;;;6.25;4.00;;;;;-143.90;100.00;75387.22;4997921;28;104147;-75
2023/11/07 07:15:20;;;;;;;;;5.25;4.00;;;;;-143.90;100.00;75385.16;4982941;28;101944;-75
2023/11/07 07:17:47;;;;;;;;;4.00;4.00;;;;;-143.90;100.00;75383.09;4980213;28;102221;-75
2023/11/07 07:20:14;;;;;;;;;8.50;4.00;;;;;-143.90;100.00;75372.75;4986639;28;102512;-75
2023/11/07 07:22:42;;;;;;;;;6.75;3.00;;;;;-143.90;100.00;75358.28;4981003;28;105149;-75
2023/11/07 07:25:15;;;;;;;;;6.00;4.00;;;;;-143.90;100.00;75345.88;4985215;28;102139;-75
2023/11/07 07:27:47;;;;;;;;;6.00;5.25;;;;;-143.90;100.00;75327.28;4982550;28;102187;-75
2023/11/07 07:30:21;;;;;;;;;4.00;3.00;;;;;-143.90;100.00;75321.06;4985595;28;102143;-75
2023/11/07 07:32:52;;;;;;;;;3.50;3.25;;;;;-143.90;100.00;75306.59;4982125;28;104882;-75
2023/11/07 07:35:21;;;;;;;;;4.00;3.00;;;;;-143.90;98.87;75300.41;4984731;28;102265;-75
2023/11/07 07:37:51;;;;;;;;;2.00;1.00;;;;;-143.90;98.52;75275.59;4987365;28;102749;-74
2023/11/07 07:40:25;;;;;;;;;2.25;2.25;;;;;-143.90;97.42;75265.25;4983839;28;102656;-75
2023/11/07 07:42:54;;;;;;;;;7.00;4.00;;;;;-143.90;95.50;75250.78;4997080;28;103008;-75
2023/11/07 07:45:21;;;;;;;;;1.75;1.00;;;;;-143.90;95.23;75209.44;4986039;28;102377;-75
2023/11/07 07:47:49;;;;;;;;;2.75;2.75;;;;;-143.90;93.74;75188.75;4978794;28;102694;-75
2023/11/07 07:50:18;;;;;;;;;4.00;3.00;;;;;-143.90;92.83;75180.50;4985349;28;101966;-74
2023/11/07 07:52:47;;;;;;;;;6.00;3.50;;;;;-143.90;93.09;75178.41;4983590;28;104010;-74
2023/11/07 07:55:14;;;;;;;;;4.75;3.00;;;;;-143.90;91.80;75172.22;5000020;28;103516;-74
2023/11/07 07:58:00;;;;;;;;;4.25;3.00;;;;;-143.90;91.96;75168.09;4982179;28;102371;-73
2023/11/07 08:00:30;;;;;;;;;3.00;3.00;;;;;-143.90;89.33;75166.03;4981437;28;102464;-75
2023/11/07 08:02:59;;;;;;;;;2.75;2.25;;;;;-143.90;89.59;75159.81;4981192;28;103984;-74
2023/11/07 08:05:28;;;;;;;;;3.75;3.75;;;;;-143.90;90.62;75161.88;4982827;28;102119;-74
2023/11/07 08:07:55;;;;;;;;;2.25;2.25;;;;;-143.90;88.89;75143.28;4979222;28;102009;-74
2023/11/07 08:10:22;;;;;;;;;1.75;1.75;;;;;-143.90;88.97;75137.06;4984605;28;102144;-74
2023/11/07 08:12:50;;;;;;;;;2.75;2.00;;;;;-143.90;87.49;75114.34;4982201;28;105608;-74
2023/11/07 08:15:17;;;;;;;;;6.00;2.25;;;;;-143.90;87.80;75097.78;4980294;28;102320;-75
2023/11/07 08:17:45;;;;;;;;;2.75;2.00;;;;;-143.90;87.56;75087.47;4985859;28;102230;-74
2023/11/07 08:20:14;;;;;;;;;3.00;3.00;;;;;-143.90;86.43;75077.13;4986171;28;102365;-75
2023/11/07 08:22:42;;;;;;;;;3.25;3.00;;;;;-143.90;88.20;75079.19;4985207;28;105175;-74
2023/11/07 08:25:10;;;;;;;;;3.00;2.75;;;;;-143.90;85.61;75060.59;4984921;28;102235;-74
2023/11/07 08:27:41;;;;;;;;;4.00;3.50;;;;;-143.90;84.28;75066.78;4982042;28;102326;-75
2023/11/07 08:30:12;;;;;;;;;5.25;3.25;;;;;-143.90;85.29;75058.50;4993044;28;102099;-75
2023/11/07 08:32:43;;;;;;;;;4.00;3.00;;;;;-143.90;84.75;75064.72;4979722;28;105422;-74
2023/11/07 08:35:15;;;;;;;;;3.25;3.25;;;;;-143.90;82.74;75054.38;4980853;28;102177;-75
2023/11/07 08:37:46;;;;;;;;;1.75;1.00;;;;;-143.90;81.52;75056.44;4980249;28;101855;-74
2023/11/07 08:40:16;;;;;;;;;3.25;2.25;;;;;-143.90;83.23;75033.72;4982680;28;101937;-74
2023/11/07 08:42:44;;;;;;;;;4.00;3.00;;;;;-143.90;80.75;75025.44;4978852;28;105459;-75
2023/11/07 08:45:15;;;;;;;;;4.00;4.00;;;;;-143.90;80.44;75023.38;4985094;28;103060;-75
2023/11/07 08:47:44;;;;;;;;;3.50;3.50;;;;;-143.90;81.65;75019.22;4979344;28;101963;-75
2023/11/07 08:50:12;;;;;;;;;3.50;3.25;;;;;-143.90;80.39;75010.97;4979563;28;102126;-75
2023/11/07 08:52:42;;;;;;;;;3.00;3.00;;;;;-143.90;81.62;74994.44;4979307;28;104754;-75
2023/11/07 08:55:10;;;;;;;;;4.75;4.00;;;;;-143.90;80.32;74994.44;4983017;28;102044;-75
2023/11/07 08:57:38;;;;;;;;;3.50;3.00;;;;;-143.90;77.61;74986.16;4980966;28;102425;-74
2023/11/07 09:00:12;;;;;;;;;3.75;3.75;;;;;-143.90;80.61;74967.56;4984549;28;102159;-75
2023/11/07 09:02:41;;;;;;;;;3.50;2.50;;;;;-143.90;77.57;74953.09;4982781;28;104610;-74
2023/11/07 09:05:09;;;;;;;;;4.00;2.75;;;;;-143.90;76.53;74946.88;4982144;28;102249;-75
2023/11/07 09:07:36;;;;;;;;;3.00;3.00;;;;;-143.90;76.24;74938.59;4980342;28;102244;-75
2023/11/07 09:10:03;;;;;;;;;4.50;4.00;;;;;-143.90;76.37;74961.34;4982053;28;102289;-75
2023/11/07 09:12:29;;;;;;;;;4.00;3.00;;;;;-143.90;75.52;74953.09;4979666;28;103690;-75
2023/11/07 09:14:56;;;;;;;;;2.50;1.75;;;;;-143.90;74.77;74944.81;4979964;28;102286;-75
2023/11/07 09:17:24;;;;;;;;;3.75;3.00;;;;;-143.90;73.98;74955.16;4979632;28;102211;-75
2023/11/07 09:19:51;;;;;;;;;3.00;2.00;;;;;-143.90;75.77;74948.94;4985485;28;102165;-74
2023/11/07 09:22:18;;;;;;;;;1.00;1.00;;;;;-143.90;75.26;74920.00;4986412;28;104075;-75
2023/11/07 09:24:44;;;;;;;;;1.00;1.00;;;;;-143.90;73.79;74920.00;4981516;28;102197;-75
2023/11/07 09:27:11;;;;;;;;;1.00;1.00;;;;;-143.90;73.09;74915.88;4984157;28;102398;-75
2023/11/07 09:29:39;;;;;;;;;1.00;1.00;;;;;-143.90;73.15;74901.41;4982866;28;102103;-75
2023/11/07 09:32:07;;;;;;;;;1.00;1.00;;;;;-143.90;72.19;74911.72;4985437;28;104366;-75
2023/11/07 09:34:39;;;;;;;;;2.00;2.00;;;;;-143.90;70.48;74893.13;4988618;28;101946;-74
2023/11/07 09:37:09;;;;;;;;;1.00;1.00;;;;;-143.90;68.44;74895.19;4982760;28;103017;-74
2023/11/07 09:39:39;;;;;;;;;4.00;2.00;;;;;-143.90;71.41;74895.19;4987782;28;102042;-73
2023/11/07 09:42:08;;;;;;;;;3.00;2.00;;;;;-143.90;70.90;74886.94;4984277;28;105618;-74
2023/11/07 09:44:39;;;;;;;;;1.25;1.25;;;;;-143.90;68.79;74899.34;4984363;28;102375;-75
2023/11/07 09:47:06;;;;;;;;;1.00;1.00;;;;;-143.90;67.08;74882.78;4986006;28;102221;-75
2023/11/07 09:49:33;;;;;;;;;2.25;2.25;;;;;-143.90;70.85;74878.66;5001732;28;102473;-75
2023/11/07 09:52:05;;;;;;;;;2.50;2.00;;;;;-143.90;67.49;74855.91;4988534;28;105521;-75
2023/11/07 09:54:37;;;;;;;;;3.25;2.00;;;;;-143.90;66.47;74853.84;5002255;28;101886;-75
2023/11/07 09:57:08;;;;;;;;;2.00;1.00;;;;;-143.90;67.20;74853.84;4986584;28;102174;-75
2023/11/07 09:59:52;;;;;;;;;0.00;0.00;;;;;-143.90;66.96;74843.53;4982707;28;102051;-74
2023/11/07 10:02:21;;;;;;;;;1.50;1.50;;;;;-143.90;64.76;74853.84;4983434;28;103932;-75
2023/11/07 10:04:50;;;;;;;;;3.00;1.50;;;;;-143.90;66.88;74833.19;4984110;28;101906;-74
2023/11/07 10:07:17;;;;;;;;;1.00;1.00;;;;;-143.90;64.21;74810.44;4984913;28;103177;-76
2023/11/07 10:09:44;;;;;;;;;1.00;1.00;;;;;-143.90;66.79;74814.56;4985792;28;102391;-75
2023/11/07 10:12:18;;;;;;;;;2.75;2.00;;;;;-143.90;62.96;74820.78;4987183;28;102972;-74
2023/11/07 10:14:45;;;;;;;;;2.00;2.00;;;;;-143.90;61.72;74800.09;4985845;28;102342;-75
2023/11/07 10:17:20;;;;;;;;;2.00;2.00;;;;;-143.90;60.30;74804.25;4985884;28;102019;-74
2023/11/07 10:20:04;;;;;;;;;1.50;1.00;;;;;-143.90;59.15;74781.50;4989697;28;102249;-74
2023/11/07 10:22:45;;;;;;;;;2.00;1.00;;;;;-143.90;56.23;74787.69;4983172;28;105590;-75
2023/11/07 10:25:31;;;;;;;;;2.00;1.25;;;;;-143.90;56.02;74808.38;4983681;28;101838;-75
2023/11/07 10:28:08;;;;;;;;;1.00;1.00;;;;;-143.90;52.80;74806.31;4998969;28;102241;-75
2023/11/07 10:30:39;;;;;;;;;1.75;1.75;;;;;-143.90;53.71;74824.91;4981337;28;101973;-75
2023/11/07 10:33:07;;;;;;;;;0.00;0.00;;;;;-143.90;53.92;74816.66;4980210;28;103308;-75
2023/11/07 10:35:54;;;;;;;;;0.25;0.25;;;;;-143.90;56.87;74783.56;4981485;28;101905;-75
2023/11/07 10:38:25;;;;;;;;;1.00;1.00;;;;;-143.90;55.97;74793.91;4981638;28;101929;-74
2023/11/07 10:40:52;;;;;;;;;0.00;0.00;;;;;-143.90;53.78;74785.63;4987068;28;102031;-74
2023/11/07 10:43:38;;;;;;;;;1.00;1.00;;;;;-143.90;55.02;74767.03;4984059;28;105010;-75
2023/11/07 10:46:08;;;;;;;;;1.50;1.50;;;;;-143.90;52.46;74779.44;4998339;28;102214;-74
2023/11/07 10:48:39;;;;;;;;;1.00;1.00;;;;;-143.90;53.25;74769.09;4978495;28;102252;-75
2023/11/07 10:51:12;;;;;;;;;2.00;1.00;;;;;-143.90;51.78;74804.25;4988429;28;102139;-75
2023/11/07 10:53:44;;;;;;;;;2.00;1.00;;;;;-143.90;52.75;74773.22;4985084;28;103299;-74
2023/11/07 10:56:18;;;;;;;;;1.75;1.00;;;;;-143.90;52.29;74752.56;4983954;28;102132;-75
2023/11/07 10:58:54;;;;;;;;;1.00;1.00;;;;;-143.90;51.75;74748.44;4979549;28;101921;-74
2023/11/07 11:01:22;;;;;;;;;2.00;1.00;;;;;-143.90;50.65;74740.16;4983031;28;102365;-74
2023/11/07 11:03:50;;;;;;;;;1.00;1.00;;;;;-143.90;51.60;74725.69;4987085;28;103297;-74
2023/11/07 11:06:23;;;;;;;;;2.00;1.25;;;;;-143.90;50.88;74744.28;5000351;28;101986;-76
2023/11/07 11:09:00;;;;;;;;;1.00;1.00;;;;;-143.90;51.41;74738.09;4980990;28;102213;-76